sensor_id;sensor_type;location;lat;lon;timestamp;P1;durP1;ratioP1;P2;durP2;ratioP2
30020;SDS011;16861;52.294;7.760;2022-07-06T00:01:28;3.60;;;1.10;;
30020;SDS011;16861;52.294;7.760;2022-07-06T00:03:55;1.55;;;1.00;;
30020;SDS011;16861;52.294;7.760;2022-07-06T00:06:22;2.15;;;0.90;;
30020;SDS011;16861;52.294;7.760;2022-07-06T00:08:49;1.88;;;1.17;;
30020;SDS011;16861;52.294;7.760;2022-07-06T00:11:17;1.95;;;1.00;;
30020;SDS011;16861;52.294;7.760;2022-07-06T00:13:43;3.47;;;1.23;;
30020;SDS011;16861;52.294;7.760;2022-07-06T00:16:10;4.18;;;1.20;;
30020;SDS011;16861;52.294;7.760;2022-07-06T00:18:37;3.83;;;1.27;;
30020;SDS011;16861;52.294;7.760;2022-07-06T00:21:03;1.70;;;1.17;;
30020;SDS011;16861;52.294;7.760;2022-07-06T00:23:30;2.35;;;1.00;;
30020;SDS011;16861;52.294;7.760;2022-07-06T00:25:57;3.05;;;1.08;;
30020;SDS011;16861;52.294;7.760;2022-07-06T00:28:23;2.45;;;1.02;;
30020;SDS011;16861;52.294;7.760;2022-07-06T00:30:51;3.13;;;1.30;;
30020;SDS011;16861;52.294;7.760;2022-07-06T00:33:18;1.30;;;0.90;;
30020;SDS011;16861;52.294;7.760;2022-07-06T00:35:45;3.78;;;1.30;;
30020;SDS011;16861;52.294;7.760;2022-07-06T00:38:12;3.88;;;1.10;;
30020;SDS011;16861;52.294;7.760;2022-07-06T00:40:38;2.00;;;0.90;;
30020;SDS011;16861;52.294;7.760;2022-07-06T00:43:05;3.72;;;1.30;;
30020;SDS011;16861;52.294;7.760;2022-07-06T00:45:32;1.83;;;1.05;;
30020;SDS011;16861;52.294;7.760;2022-07-06T00:47:58;3.75;;;1.40;;
30020;SDS011;16861;52.294;7.760;2022-07-06T00:50:25;3.65;;;1.10;;
30020;SDS011;16861;52.294;7.760;2022-07-06T00:52:55;4.15;;;1.17;;
30020;SDS011;16861;52.294;7.760;2022-07-06T00:55:24;3.92;;;1.10;;
30020;SDS011;16861;52.294;7.760;2022-07-06T00:57:52;3.38;;;1.38;;
30020;SDS011;16861;52.294;7.760;2022-07-06T01:00:21;2.33;;;1.40;;
30020;SDS011;16861;52.294;7.760;2022-07-06T01:02:50;3.20;;;1.40;;
30020;SDS011;16861;52.294;7.760;2022-07-06T01:05:17;3.35;;;1.30;;
30020;SDS011;16861;52.294;7.760;2022-07-06T01:07:44;3.08;;;1.70;;
30020;SDS011;16861;52.294;7.760;2022-07-06T01:10:12;2.63;;;1.60;;
30020;SDS011;16861;52.294;7.760;2022-07-06T01:12:40;3.67;;;1.52;;
30020;SDS011;16861;52.294;7.760;2022-07-06T01:15:09;3.42;;;1.50;;
30020;SDS011;16861;52.294;7.760;2022-07-06T01:17:39;5.50;;;1.60;;
30020;SDS011;16861;52.294;7.760;2022-07-06T01:22:36;2.63;;;1.70;;
30020;SDS011;16861;52.294;7.760;2022-07-06T01:25:04;3.22;;;1.42;;
30020;SDS011;16861;52.294;7.760;2022-07-06T01:27:32;3.33;;;1.40;;
30020;SDS011;16861;52.294;7.760;2022-07-06T01:30:00;2.47;;;1.65;;
30020;SDS011;16861;52.294;7.760;2022-07-06T01:32:27;3.75;;;1.80;;
30020;SDS011;16861;52.294;7.760;2022-07-06T01:34:54;3.22;;;1.40;;
30020;SDS011;16861;52.294;7.760;2022-07-06T01:37:21;3.80;;;1.23;;
30020;SDS011;16861;52.294;7.760;2022-07-06T01:39:47;3.80;;;1.40;;
30020;SDS011;16861;52.294;7.760;2022-07-06T01:42:14;2.97;;;1.42;;
30020;SDS011;16861;52.294;7.760;2022-07-06T01:44:40;4.03;;;1.35;;
30020;SDS011;16861;52.294;7.760;2022-07-06T01:47:07;4.88;;;1.83;;
30020;SDS011;16861;52.294;7.760;2022-07-06T01:49:33;3.65;;;1.65;;
30020;SDS011;16861;52.294;7.760;2022-07-06T01:52:00;2.72;;;1.40;;
30020;SDS011;16861;52.294;7.760;2022-07-06T01:54:26;7.40;;;1.95;;
30020;SDS011;16861;52.294;7.760;2022-07-06T01:56:53;3.65;;;1.45;;
30020;SDS011;16861;52.294;7.760;2022-07-06T01:59:19;2.50;;;1.50;;
30020;SDS011;16861;52.294;7.760;2022-07-06T02:01:46;3.53;;;1.48;;
30020;SDS011;16861;52.294;7.760;2022-07-06T02:04:13;4.40;;;1.67;;
30020;SDS011;16861;52.294;7.760;2022-07-06T02:06:39;2.00;;;1.48;;
30020;SDS011;16861;52.294;7.760;2022-07-06T02:09:06;2.92;;;1.50;;
30020;SDS011;16861;52.294;7.760;2022-07-06T02:11:32;2.80;;;1.30;;
30020;SDS011;16861;52.294;7.760;2022-07-06T02:13:59;8.63;;;1.92;;
30020;SDS011;16861;52.294;7.760;2022-07-06T02:16:25;2.10;;;1.35;;
30020;SDS011;16861;52.294;7.760;2022-07-06T02:18:52;3.60;;;1.63;;
30020;SDS011;16861;52.294;7.760;2022-07-06T02:21:19;2.58;;;1.38;;
30020;SDS011;16861;52.294;7.760;2022-07-06T02:23:46;2.83;;;1.50;;
30020;SDS011;16861;52.294;7.760;2022-07-06T02:26:12;4.50;;;1.70;;
30020;SDS011;16861;52.294;7.760;2022-07-06T02:28:39;3.30;;;1.50;;
30020;SDS011;16861;52.294;7.760;2022-07-06T02:31:05;2.35;;;1.60;;
30020;SDS011;16861;52.294;7.760;2022-07-06T02:33:32;3.03;;;1.65;;
30020;SDS011;16861;52.294;7.760;2022-07-06T02:35:58;3.72;;;1.20;;
30020;SDS011;16861;52.294;7.760;2022-07-06T02:38:25;6.85;;;1.65;;
30020;SDS011;16861;52.294;7.760;2022-07-06T02:40:52;1.88;;;1.30;;
30020;SDS011;16861;52.294;7.760;2022-07-06T02:43:18;5.55;;;1.55;;
30020;SDS011;16861;52.294;7.760;2022-07-06T02:45:45;4.47;;;1.60;;
30020;SDS011;16861;52.294;7.760;2022-07-06T02:48:12;3.33;;;1.52;;
30020;SDS011;16861;52.294;7.760;2022-07-06T02:50:38;3.38;;;1.60;;
30020;SDS011;16861;52.294;7.760;2022-07-06T02:53:05;2.80;;;1.35;;
30020;SDS011;16861;52.294;7.760;2022-07-06T02:55:32;2.13;;;1.63;;
30020;SDS011;16861;52.294;7.760;2022-07-06T02:57:59;3.22;;;1.80;;
30020;SDS011;16861;52.294;7.760;2022-07-06T03:00:25;4.47;;;1.63;;
30020;SDS011;16861;52.294;7.760;2022-07-06T03:02:52;4.25;;;1.77;;
30020;SDS011;16861;52.294;7.760;2022-07-06T03:05:19;4.00;;;1.45;;
30020;SDS011;16861;52.294;7.760;2022-07-06T03:07:45;3.95;;;1.50;;
30020;SDS011;16861;52.294;7.760;2022-07-06T03:10:12;3.30;;;2.03;;
30020;SDS011;16861;52.294;7.760;2022-07-06T03:12:38;3.65;;;2.17;;
30020;SDS011;16861;52.294;7.760;2022-07-06T03:15:06;3.83;;;1.73;;
30020;SDS011;16861;52.294;7.760;2022-07-06T03:17:36;3.42;;;1.35;;
30020;SDS011;16861;52.294;7.760;2022-07-06T03:20:04;3.35;;;1.70;;
30020;SDS011;16861;52.294;7.760;2022-07-06T03:22:31;2.63;;;1.52;;
30020;SDS011;16861;52.294;7.760;2022-07-06T03:24:58;6.43;;;1.70;;
30020;SDS011;16861;52.294;7.760;2022-07-06T03:27:24;2.88;;;1.40;;
30020;SDS011;16861;52.294;7.760;2022-07-06T03:29:50;4.07;;;1.98;;
30020;SDS011;16861;52.294;7.760;2022-07-06T03:32:17;2.38;;;1.27;;
30020;SDS011;16861;52.294;7.760;2022-07-06T03:34:44;3.05;;;1.23;;
30020;SDS011;16861;52.294;7.760;2022-07-06T03:37:10;4.25;;;1.60;;
30020;SDS011;16861;52.294;7.760;2022-07-06T03:39:37;5.53;;;1.50;;
30020;SDS011;16861;52.294;7.760;2022-07-06T03:42:03;3.65;;;1.30;;
30020;SDS011;16861;52.294;7.760;2022-07-06T03:44:30;3.60;;;1.88;;
30020;SDS011;16861;52.294;7.760;2022-07-06T03:46:56;3.75;;;1.90;;
30020;SDS011;16861;52.294;7.760;2022-07-06T03:49:23;3.55;;;1.40;;
30020;SDS011;16861;52.294;7.760;2022-07-06T03:51:53;5.30;;;1.70;;
30020;SDS011;16861;52.294;7.760;2022-07-06T03:54:20;2.50;;;1.33;;
30020;SDS011;16861;52.294;7.760;2022-07-06T03:56:47;4.75;;;1.50;;
30020;SDS011;16861;52.294;7.760;2022-07-06T03:59:13;5.65;;;1.38;;
30020;SDS011;16861;52.294;7.760;2022-07-06T04:01:40;2.85;;;1.52;;
30020;SDS011;16861;52.294;7.760;2022-07-06T04:04:07;2.35;;;1.30;;
30020;SDS011;16861;52.294;7.760;2022-07-06T04:06:34;6.22;;;1.83;;
30020;SDS011;16861;52.294;7.760;2022-07-06T04:09:00;3.25;;;1.30;;
30020;SDS011;16861;52.294;7.760;2022-07-06T04:11:27;4.97;;;1.70;;
30020;SDS011;16861;52.294;7.760;2022-07-06T04:13:54;3.90;;;1.40;;
30020;SDS011;16861;52.294;7.760;2022-07-06T04:16:20;4.40;;;1.58;;
30020;SDS011;16861;52.294;7.760;2022-07-06T04:18:47;6.05;;;1.73;;
30020;SDS011;16861;52.294;7.760;2022-07-06T04:21:14;3.92;;;1.45;;
30020;SDS011;16861;52.294;7.760;2022-07-06T04:23:40;6.95;;;1.60;;
30020;SDS011;16861;52.294;7.760;2022-07-06T04:26:07;3.75;;;1.40;;
30020;SDS011;16861;52.294;7.760;2022-07-06T04:28:33;4.60;;;1.55;;
30020;SDS011;16861;52.294;7.760;2022-07-06T04:31:00;4.85;;;1.60;;
30020;SDS011;16861;52.294;7.760;2022-07-06T04:33:27;2.50;;;1.30;;
30020;SDS011;16861;52.294;7.760;2022-07-06T04:35:53;1.83;;;1.17;;
30020;SDS011;16861;52.294;7.760;2022-07-06T04:38:20;4.32;;;1.25;;
30020;SDS011;16861;52.294;7.760;2022-07-06T04:40:47;4.22;;;1.38;;
30020;SDS011;16861;52.294;7.760;2022-07-06T04:43:14;3.03;;;1.40;;
30020;SDS011;16861;52.294;7.760;2022-07-06T04:45:40;2.13;;;1.17;;
30020;SDS011;16861;52.294;7.760;2022-07-06T04:48:07;4.32;;;1.42;;
30020;SDS011;16861;52.294;7.760;2022-07-06T04:50:34;4.50;;;2.00;;
30020;SDS011;16861;52.294;7.760;2022-07-06T04:53:05;5.22;;;1.60;;
30020;SDS011;16861;52.294;7.760;2022-07-06T04:55:32;3.78;;;1.50;;
30020;SDS011;16861;52.294;7.760;2022-07-06T04:57:59;2.45;;;1.45;;
30020;SDS011;16861;52.294;7.760;2022-07-06T05:00:25;1.83;;;1.40;;
30020;SDS011;16861;52.294;7.760;2022-07-06T05:02:52;3.38;;;1.40;;
30020;SDS011;16861;52.294;7.760;2022-07-06T05:05:19;1.83;;;1.27;;
30020;SDS011;16861;52.294;7.760;2022-07-06T05:07:46;5.63;;;1.80;;
30020;SDS011;16861;52.294;7.760;2022-07-06T05:10:12;6.40;;;1.75;;
30020;SDS011;16861;52.294;7.760;2022-07-06T05:12:39;3.47;;;1.55;;
30020;SDS011;16861;52.294;7.760;2022-07-06T05:15:06;2.47;;;1.38;;
30020;SDS011;16861;52.294;7.760;2022-07-06T05:17:33;2.90;;;1.15;;
30020;SDS011;16861;52.294;7.760;2022-07-06T05:20:00;3.25;;;1.35;;
30020;SDS011;16861;52.294;7.760;2022-07-06T05:22:26;2.05;;;1.38;;
30020;SDS011;16861;52.294;7.760;2022-07-06T05:24:53;3.97;;;1.70;;
30020;SDS011;16861;52.294;7.760;2022-07-06T05:27:20;4.25;;;1.90;;
30020;SDS011;16861;52.294;7.760;2022-07-06T05:29:46;3.78;;;1.55;;
30020;SDS011;16861;52.294;7.760;2022-07-06T05:32:13;3.45;;;1.33;;
30020;SDS011;16861;52.294;7.760;2022-07-06T05:34:39;3.38;;;1.83;;
30020;SDS011;16861;52.294;7.760;2022-07-06T05:37:06;5.00;;;1.52;;
30020;SDS011;16861;52.294;7.760;2022-07-06T05:39:33;2.15;;;1.17;;
30020;SDS011;16861;52.294;7.760;2022-07-06T05:42:00;7.40;;;1.55;;
30020;SDS011;16861;52.294;7.760;2022-07-06T05:44:26;3.55;;;1.38;;
30020;SDS011;16861;52.294;7.760;2022-07-06T05:46:56;4.85;;;1.83;;
30020;SDS011;16861;52.294;7.760;2022-07-06T05:49:42;5.47;;;1.60;;
30020;SDS011;16861;52.294;7.760;2022-07-06T05:52:27;6.53;;;1.42;;
30020;SDS011;16861;52.294;7.760;2022-07-06T05:54:54;3.78;;;1.60;;
30020;SDS011;16861;52.294;7.760;2022-07-06T05:57:21;4.90;;;1.33;;
30020;SDS011;16861;52.294;7.760;2022-07-06T05:59:47;3.00;;;1.33;;
30020;SDS011;16861;52.294;7.760;2022-07-06T06:02:14;4.00;;;1.88;;
30020;SDS011;16861;52.294;7.760;2022-07-06T06:04:41;6.43;;;1.48;;
30020;SDS011;16861;52.294;7.760;2022-07-06T06:07:07;2.55;;;1.50;;
30020;SDS011;16861;52.294;7.760;2022-07-06T06:09:34;2.60;;;1.27;;
30020;SDS011;16861;52.294;7.760;2022-07-06T06:12:01;3.92;;;1.70;;
30020;SDS011;16861;52.294;7.760;2022-07-06T06:14:27;3.33;;;1.60;;
30020;SDS011;16861;52.294;7.760;2022-07-06T06:16:54;5.00;;;1.48;;
30020;SDS011;16861;52.294;7.760;2022-07-06T06:19:21;3.78;;;1.60;;
30020;SDS011;16861;52.294;7.760;2022-07-06T06:21:48;3.92;;;1.13;;
30020;SDS011;16861;52.294;7.760;2022-07-06T06:24:15;2.15;;;1.20;;
30020;SDS011;16861;52.294;7.760;2022-07-06T06:26:41;3.72;;;1.20;;
30020;SDS011;16861;52.294;7.760;2022-07-06T06:29:08;4.78;;;1.38;;
30020;SDS011;16861;52.294;7.760;2022-07-06T06:31:34;3.30;;;1.17;;
30020;SDS011;16861;52.294;7.760;2022-07-06T06:34:06;3.08;;;1.15;;
30020;SDS011;16861;52.294;7.760;2022-07-06T06:36:33;3.33;;;1.05;;
30020;SDS011;16861;52.294;7.760;2022-07-06T06:38:59;2.65;;;0.98;;
30020;SDS011;16861;52.294;7.760;2022-07-06T06:41:28;4.10;;;1.27;;
30020;SDS011;16861;52.294;7.760;2022-07-06T06:43:54;2.28;;;1.00;;
30020;SDS011;16861;52.294;7.760;2022-07-06T06:46:21;1.73;;;1.02;;
30020;SDS011;16861;52.294;7.760;2022-07-06T06:48:48;1.83;;;0.82;;
30020;SDS011;16861;52.294;7.760;2022-07-06T06:51:14;5.80;;;1.25;;
30020;SDS011;16861;52.294;7.760;2022-07-06T06:53:41;4.00;;;1.25;;
30020;SDS011;16861;52.294;7.760;2022-07-06T06:56:07;2.33;;;1.10;;
30020;SDS011;16861;52.294;7.760;2022-07-06T06:58:35;5.43;;;1.55;;
30020;SDS011;16861;52.294;7.760;2022-07-06T07:01:21;3.92;;;1.10;;
30020;SDS011;16861;52.294;7.760;2022-07-06T07:03:48;5.78;;;1.30;;
30020;SDS011;16861;52.294;7.760;2022-07-06T07:06:16;5.60;;;1.30;;
30020;SDS011;16861;52.294;7.760;2022-07-06T07:08:43;4.53;;;1.00;;
30020;SDS011;16861;52.294;7.760;2022-07-06T07:11:09;4.82;;;1.00;;
30020;SDS011;16861;52.294;7.760;2022-07-06T07:13:36;3.30;;;1.40;;
30020;SDS011;16861;52.294;7.760;2022-07-06T07:16:02;3.83;;;1.20;;
30020;SDS011;16861;52.294;7.760;2022-07-06T07:18:29;4.00;;;1.23;;
30020;SDS011;16861;52.294;7.760;2022-07-06T07:20:58;4.95;;;1.30;;
30020;SDS011;16861;52.294;7.760;2022-07-06T07:23:24;2.45;;;1.05;;
30020;SDS011;16861;52.294;7.760;2022-07-06T07:25:51;4.40;;;1.42;;
30020;SDS011;16861;52.294;7.760;2022-07-06T07:28:17;4.05;;;1.50;;
30020;SDS011;16861;52.294;7.760;2022-07-06T07:30:44;2.42;;;1.25;;
30020;SDS011;16861;52.294;7.760;2022-07-06T07:33:11;3.47;;;1.20;;
30020;SDS011;16861;52.294;7.760;2022-07-06T07:35:37;3.40;;;1.35;;
30020;SDS011;16861;52.294;7.760;2022-07-06T07:38:05;3.42;;;1.25;;
30020;SDS011;16861;52.294;7.760;2022-07-06T07:40:31;5.55;;;1.20;;
30020;SDS011;16861;52.294;7.760;2022-07-06T07:42:59;3.47;;;1.20;;
30020;SDS011;16861;52.294;7.760;2022-07-06T07:45:26;4.78;;;1.10;;
30020;SDS011;16861;52.294;7.760;2022-07-06T07:47:53;2.40;;;0.75;;
30020;SDS011;16861;52.294;7.760;2022-07-06T07:50:20;6.47;;;0.98;;
30020;SDS011;16861;52.294;7.760;2022-07-06T07:52:46;2.15;;;0.90;;
30020;SDS011;16861;52.294;7.760;2022-07-06T07:55:13;3.42;;;1.10;;
30020;SDS011;16861;52.294;7.760;2022-07-06T07:57:59;4.05;;;1.10;;
30020;SDS011;16861;52.294;7.760;2022-07-06T08:00:26;4.07;;;1.20;;
30020;SDS011;16861;52.294;7.760;2022-07-06T08:02:55;3.47;;;0.63;;
30020;SDS011;16861;52.294;7.760;2022-07-06T08:05:21;3.75;;;0.98;;
30020;SDS011;16861;52.294;7.760;2022-07-06T08:07:48;4.85;;;1.08;;
30020;SDS011;16861;52.294;7.760;2022-07-06T08:10:14;5.65;;;0.98;;
30020;SDS011;16861;52.294;7.760;2022-07-06T08:12:41;4.07;;;0.60;;
30020;SDS011;16861;52.294;7.760;2022-07-06T08:15:11;1.73;;;0.60;;
30020;SDS011;16861;52.294;7.760;2022-07-06T08:17:38;2.97;;;0.90;;
30020;SDS011;16861;52.294;7.760;2022-07-06T08:20:06;3.00;;;0.77;;
30020;SDS011;16861;52.294;7.760;2022-07-06T08:22:35;1.58;;;0.70;;
30020;SDS011;16861;52.294;7.760;2022-07-06T08:25:02;2.30;;;0.63;;
30020;SDS011;16861;52.294;7.760;2022-07-06T08:27:30;1.08;;;0.50;;
30020;SDS011;16861;52.294;7.760;2022-07-06T08:29:56;1.23;;;0.60;;
30020;SDS011;16861;52.294;7.760;2022-07-06T08:32:23;1.88;;;0.60;;
30020;SDS011;16861;52.294;7.760;2022-07-06T08:35:10;1.88;;;0.70;;
30020;SDS011;16861;52.294;7.760;2022-07-06T08:37:37;2.22;;;0.60;;
30020;SDS011;16861;52.294;7.760;2022-07-06T08:40:04;2.42;;;0.60;;
30020;SDS011;16861;52.294;7.760;2022-07-06T08:42:32;2.22;;;0.70;;
30020;SDS011;16861;52.294;7.760;2022-07-06T08:45:02;1.48;;;0.60;;
30020;SDS011;16861;52.294;7.760;2022-07-06T08:47:30;2.80;;;0.60;;
30020;SDS011;16861;52.294;7.760;2022-07-06T08:49:57;3.05;;;0.70;;
30020;SDS011;16861;52.294;7.760;2022-07-06T08:52:24;1.20;;;0.38;;
30020;SDS011;16861;52.294;7.760;2022-07-06T08:54:51;1.73;;;0.50;;
30020;SDS011;16861;52.294;7.760;2022-07-06T08:57:18;1.45;;;0.55;;
30020;SDS011;16861;52.294;7.760;2022-07-06T08:59:45;1.20;;;0.68;;
30020;SDS011;16861;52.294;7.760;2022-07-06T09:02:13;2.45;;;0.70;;
30020;SDS011;16861;52.294;7.760;2022-07-06T09:04:41;1.48;;;0.68;;
30020;SDS011;16861;52.294;7.760;2022-07-06T09:07:09;3.72;;;0.82;;
30020;SDS011;16861;52.294;7.760;2022-07-06T09:09:36;1.77;;;0.77;;
30020;SDS011;16861;52.294;7.760;2022-07-06T09:12:04;3.40;;;0.57;;
30020;SDS011;16861;52.294;7.760;2022-07-06T09:14:35;1.40;;;0.68;;
30020;SDS011;16861;52.294;7.760;2022-07-06T09:17:03;1.75;;;0.60;;
30020;SDS011;16861;52.294;7.760;2022-07-06T09:19:41;2.53;;;0.63;;
30020;SDS011;16861;52.294;7.760;2022-07-06T09:22:11;1.33;;;0.70;;
30020;SDS011;16861;52.294;7.760;2022-07-06T09:24:51;2.92;;;0.68;;
30020;SDS011;16861;52.294;7.760;2022-07-06T09:27:19;2.58;;;0.50;;
30020;SDS011;16861;52.294;7.760;2022-07-06T09:29:45;1.58;;;0.70;;
30020;SDS011;16861;52.294;7.760;2022-07-06T09:32:12;3.90;;;0.60;;
30020;SDS011;16861;52.294;7.760;2022-07-06T09:34:46;1.67;;;0.50;;
30020;SDS011;16861;52.294;7.760;2022-07-06T09:37:13;2.05;;;0.60;;
30020;SDS011;16861;52.294;7.760;2022-07-06T09:39:40;1.67;;;0.65;;
30020;SDS011;16861;52.294;7.760;2022-07-06T09:42:09;1.73;;;0.57;;
30020;SDS011;16861;52.294;7.760;2022-07-06T09:44:37;1.20;;;0.55;;
30020;SDS011;16861;52.294;7.760;2022-07-06T09:47:07;0.73;;;0.47;;
30020;SDS011;16861;52.294;7.760;2022-07-06T09:49:36;1.30;;;0.40;;
30020;SDS011;16861;52.294;7.760;2022-07-06T09:52:05;1.58;;;0.50;;
30020;SDS011;16861;52.294;7.760;2022-07-06T09:54:34;1.48;;;0.60;;
30020;SDS011;16861;52.294;7.760;2022-07-06T09:57:02;2.05;;;0.50;;
30020;SDS011;16861;52.294;7.760;2022-07-06T09:59:34;1.87;;;0.33;;
30020;SDS011;16861;52.294;7.760;2022-07-06T10:02:03;1.70;;;0.50;;
30020;SDS011;16861;52.294;7.760;2022-07-06T10:04:31;1.88;;;0.63;;
30020;SDS011;16861;52.294;7.760;2022-07-06T10:06:59;2.42;;;0.70;;
30020;SDS011;16861;52.294;7.760;2022-07-06T10:09:26;2.75;;;0.60;;
30020;SDS011;16861;52.294;7.760;2022-07-06T10:11:55;1.45;;;0.73;;
30020;SDS011;16861;52.294;7.760;2022-07-06T10:14:24;1.33;;;0.50;;
30020;SDS011;16861;52.294;7.760;2022-07-06T10:16:56;2.08;;;0.60;;
30020;SDS011;16861;52.294;7.760;2022-07-06T10:19:24;1.42;;;0.45;;
30020;SDS011;16861;52.294;7.760;2022-07-06T10:21:52;1.08;;;0.50;;
30020;SDS011;16861;52.294;7.760;2022-07-06T10:24:19;1.45;;;0.60;;
30020;SDS011;16861;52.294;7.760;2022-07-06T10:26:47;0.95;;;0.38;;
30020;SDS011;16861;52.294;7.760;2022-07-06T10:29:14;1.23;;;0.50;;
30020;SDS011;16861;52.294;7.760;2022-07-06T10:31:45;1.42;;;0.50;;
30020;SDS011;16861;52.294;7.760;2022-07-06T10:34:15;2.28;;;0.68;;
30020;SDS011;16861;52.294;7.760;2022-07-06T10:36:44;2.58;;;0.45;;
30020;SDS011;16861;52.294;7.760;2022-07-06T10:39:16;2.83;;;0.57;;
30020;SDS011;16861;52.294;7.760;2022-07-06T10:45:19;2.38;;;0.60;;
30020;SDS011;16861;52.294;7.760;2022-07-06T10:48:15;1.23;;;0.77;;
30020;SDS011;16861;52.294;7.760;2022-07-06T10:53:10;1.25;;;0.50;;
30020;SDS011;16861;52.294;7.760;2022-07-06T10:55:59;4.25;;;0.63;;
30020;SDS011;16861;52.294;7.760;2022-07-06T10:58:34;0.82;;;0.30;;
30020;SDS011;16861;52.294;7.760;2022-07-06T11:01:27;1.23;;;0.50;;
30020;SDS011;16861;52.294;7.760;2022-07-06T11:06:22;1.83;;;0.60;;
30020;SDS011;16861;52.294;7.760;2022-07-06T11:08:51;4.45;;;0.73;;
30020;SDS011;16861;52.294;7.760;2022-07-06T11:11:21;1.80;;;0.55;;
30020;SDS011;16861;52.294;7.760;2022-07-06T11:13:52;2.33;;;0.70;;
30020;SDS011;16861;52.294;7.760;2022-07-06T11:16:22;2.60;;;0.60;;
30020;SDS011;16861;52.294;7.760;2022-07-06T11:21:33;1.95;;;0.40;;
30020;SDS011;16861;52.294;7.760;2022-07-06T11:24:03;1.60;;;0.60;;
30020;SDS011;16861;52.294;7.760;2022-07-06T11:26:31;2.38;;;0.52;;
30020;SDS011;16861;52.294;7.760;2022-07-06T11:29:05;2.75;;;0.60;;
30020;SDS011;16861;52.294;7.760;2022-07-06T11:31:51;1.65;;;0.52;;
30020;SDS011;16861;52.294;7.760;2022-07-06T11:34:21;0.65;;;0.30;;
30020;SDS011;16861;52.294;7.760;2022-07-06T11:39:30;0.57;;;0.30;;
30020;SDS011;16861;52.294;7.760;2022-07-06T11:41:59;0.82;;;0.25;;
30020;SDS011;16861;52.294;7.760;2022-07-06T11:44:27;1.67;;;0.43;;
30020;SDS011;16861;52.294;7.760;2022-07-06T11:46:53;1.10;;;0.30;;
30020;SDS011;16861;52.294;7.760;2022-07-06T11:49:26;0.93;;;0.40;;
30020;SDS011;16861;52.294;7.760;2022-07-06T11:51:53;1.02;;;0.50;;
30020;SDS011;16861;52.294;7.760;2022-07-06T11:54:20;2.28;;;0.60;;
30020;SDS011;16861;52.294;7.760;2022-07-06T11:56:49;1.48;;;0.50;;
30020;SDS011;16861;52.294;7.760;2022-07-06T12:01:49;2.03;;;0.50;;
30020;SDS011;16861;52.294;7.760;2022-07-06T12:04:24;1.80;;;0.40;;
30020;SDS011;16861;52.294;7.760;2022-07-06T12:06:51;1.58;;;0.35;;
30020;SDS011;16861;52.294;7.760;2022-07-06T12:09:18;0.88;;;0.22;;
30020;SDS011;16861;52.294;7.760;2022-07-06T12:11:46;0.77;;;0.30;;
30020;SDS011;16861;52.294;7.760;2022-07-06T12:14:14;0.80;;;0.40;;
30020;SDS011;16861;52.294;7.760;2022-07-06T12:16:43;0.50;;;0.35;;
30020;SDS011;16861;52.294;7.760;2022-07-06T12:19:11;0.85;;;0.35;;
30020;SDS011;16861;52.294;7.760;2022-07-06T12:24:21;1.13;;;0.32;;
30020;SDS011;16861;52.294;7.760;2022-07-06T12:26:54;2.13;;;0.70;;
30020;SDS011;16861;52.294;7.760;2022-07-06T12:29:21;0.88;;;0.38;;
30020;SDS011;16861;52.294;7.760;2022-07-06T12:34:21;1.92;;;0.45;;
30020;SDS011;16861;52.294;7.760;2022-07-06T12:36:50;0.30;;;0.30;;
30020;SDS011;16861;52.294;7.760;2022-07-06T12:39:19;0.47;;;0.22;;
30020;SDS011;16861;52.294;7.760;2022-07-06T12:41:53;0.82;;;0.40;;
30020;SDS011;16861;52.294;7.760;2022-07-06T12:44:31;2.85;;;0.60;;
30020;SDS011;16861;52.294;7.760;2022-07-06T12:49:32;2.70;;;0.70;;
30020;SDS011;16861;52.294;7.760;2022-07-06T12:52:00;1.33;;;0.40;;
30020;SDS011;16861;52.294;7.760;2022-07-06T12:54:33;1.50;;;0.40;;
30020;SDS011;16861;52.294;7.760;2022-07-06T12:59:30;3.30;;;0.63;;
30020;SDS011;16861;52.294;7.760;2022-07-06T13:01:57;1.45;;;0.60;;
30020;SDS011;16861;52.294;7.760;2022-07-06T13:04:25;1.42;;;0.40;;
30020;SDS011;16861;52.294;7.760;2022-07-06T13:06:53;0.32;;;0.30;;
30020;SDS011;16861;52.294;7.760;2022-07-06T13:09:20;3.70;;;0.75;;
30020;SDS011;16861;52.294;7.760;2022-07-06T13:11:48;0.57;;;0.40;;
30020;SDS011;16861;52.294;7.760;2022-07-06T13:14:16;2.53;;;0.75;;
30020;SDS011;16861;52.294;7.760;2022-07-06T13:16:44;3.55;;;0.63;;
30020;SDS011;16861;52.294;7.760;2022-07-06T13:19:12;3.22;;;0.60;;
30020;SDS011;16861;52.294;7.760;2022-07-06T13:21:39;1.58;;;0.50;;
30020;SDS011;16861;52.294;7.760;2022-07-06T13:24:06;2.55;;;0.63;;
30020;SDS011;16861;52.294;7.760;2022-07-06T13:26:33;1.50;;;0.50;;
30020;SDS011;16861;52.294;7.760;2022-07-06T13:29:00;2.28;;;0.60;;
30020;SDS011;16861;52.294;7.760;2022-07-06T13:31:27;2.90;;;0.50;;
30020;SDS011;16861;52.294;7.760;2022-07-06T13:33:54;3.08;;;0.50;;
30020;SDS011;16861;52.294;7.760;2022-07-06T13:36:21;1.33;;;0.35;;
30020;SDS011;16861;52.294;7.760;2022-07-06T13:38:48;2.28;;;0.30;;
30020;SDS011;16861;52.294;7.760;2022-07-06T13:41:15;0.75;;;0.30;;
30020;SDS011;16861;52.294;7.760;2022-07-06T13:43:42;4.38;;;0.50;;
30020;SDS011;16861;52.294;7.760;2022-07-06T13:46:08;0.45;;;0.30;;
30020;SDS011;16861;52.294;7.760;2022-07-06T13:48:37;0.88;;;0.30;;
30020;SDS011;16861;52.294;7.760;2022-07-06T13:51:04;1.25;;;0.50;;
30020;SDS011;16861;52.294;7.760;2022-07-06T13:53:30;0.52;;;0.40;;
30020;SDS011;16861;52.294;7.760;2022-07-06T13:55:58;2.08;;;0.40;;
30020;SDS011;16861;52.294;7.760;2022-07-06T13:58:25;1.67;;;0.60;;
30020;SDS011;16861;52.294;7.760;2022-07-06T14:00:52;1.83;;;0.40;;
30020;SDS011;16861;52.294;7.760;2022-07-06T14:03:18;4.30;;;0.60;;
30020;SDS011;16861;52.294;7.760;2022-07-06T14:05:45;2.47;;;0.60;;
30020;SDS011;16861;52.294;7.760;2022-07-06T14:08:12;1.75;;;0.45;;
30020;SDS011;16861;52.294;7.760;2022-07-06T14:10:39;1.25;;;0.50;;
30020;SDS011;16861;52.294;7.760;2022-07-06T14:13:05;1.75;;;0.63;;
30020;SDS011;16861;52.294;7.760;2022-07-06T14:15:32;0.95;;;0.30;;
30020;SDS011;16861;52.294;7.760;2022-07-06T14:17:59;0.65;;;0.30;;
30020;SDS011;16861;52.294;7.760;2022-07-06T14:20:26;1.58;;;0.47;;
30020;SDS011;16861;52.294;7.760;2022-07-06T14:22:52;1.80;;;0.40;;
30020;SDS011;16861;52.294;7.760;2022-07-06T14:25:19;1.38;;;0.47;;
30020;SDS011;16861;52.294;7.760;2022-07-06T14:27:46;3.50;;;0.57;;
30020;SDS011;16861;52.294;7.760;2022-07-06T14:30:12;2.40;;;0.32;;
30020;SDS011;16861;52.294;7.760;2022-07-06T14:32:39;1.98;;;0.43;;
30020;SDS011;16861;52.294;7.760;2022-07-06T14:35:06;9.27;;;1.20;;
30020;SDS011;16861;52.294;7.760;2022-07-06T14:37:33;3.05;;;0.65;;
30020;SDS011;16861;52.294;7.760;2022-07-06T14:39:59;2.60;;;0.77;;
30020;SDS011;16861;52.294;7.760;2022-07-06T14:42:26;1.58;;;0.50;;
30020;SDS011;16861;52.294;7.760;2022-07-06T14:44:53;1.23;;;0.55;;
30020;SDS011;16861;52.294;7.760;2022-07-06T14:47:19;0.30;;;0.30;;
30020;SDS011;16861;52.294;7.760;2022-07-06T14:49:46;2.72;;;0.55;;
30020;SDS011;16861;52.294;7.760;2022-07-06T14:52:13;0.65;;;0.47;;
30020;SDS011;16861;52.294;7.760;2022-07-06T14:54:39;1.17;;;0.40;;
30020;SDS011;16861;52.294;7.760;2022-07-06T14:57:06;1.67;;;0.50;;
30020;SDS011;16861;52.294;7.760;2022-07-06T14:59:34;3.22;;;0.55;;
30020;SDS011;16861;52.294;7.760;2022-07-06T15:02:01;0.55;;;0.30;;
30020;SDS011;16861;52.294;7.760;2022-07-06T15:04:28;0.75;;;0.45;;
30020;SDS011;16861;52.294;7.760;2022-07-06T15:06:55;2.08;;;0.30;;
30020;SDS011;16861;52.294;7.760;2022-07-06T15:09:22;1.42;;;0.57;;
30020;SDS011;16861;52.294;7.760;2022-07-06T15:11:50;1.67;;;0.43;;
30020;SDS011;16861;52.294;7.760;2022-07-06T15:14:17;0.60;;;0.30;;
30020;SDS011;16861;52.294;7.760;2022-07-06T15:16:44;1.27;;;0.57;;
30020;SDS011;16861;52.294;7.760;2022-07-06T15:19:11;1.02;;;0.30;;
30020;SDS011;16861;52.294;7.760;2022-07-06T15:21:37;1.33;;;0.45;;